sensor_id;sensor_type;location;lat;lon;timestamp;temperature;humidity
16974;DHT22;8603;46.944;7.412;2022-08-19T00:01:36;17.60;99.90
16974;DHT22;8603;46.944;7.412;2022-08-19T00:04:06;17.70;99.90
16974;DHT22;8603;46.944;7.412;2022-08-19T00:06:33;17.70;99.90
16974;DHT22;8603;46.944;7.412;2022-08-19T00:09:02;17.60;99.90
16974;DHT22;8603;46.944;7.412;2022-08-19T00:11:28;17.70;99.90
16974;DHT22;8603;46.944;7.412;2022-08-19T00:13:55;17.70;99.90
16974;DHT22;8603;46.944;7.412;2022-08-19T00:16:23;17.80;99.90
16974;DHT22;8603;46.944;7.412;2022-08-19T00:18:48;17.70;99.90
16974;DHT22;8603;46.944;7.412;2022-08-19T00:21:14;17.80;99.90
16974;DHT22;8603;46.944;7.412;2022-08-19T00:23:41;17.80;99.90
16974;DHT22;8603;46.944;7.412;2022-08-19T00:26:09;17.80;99.90
16974;DHT22;8603;46.944;7.412;2022-08-19T00:28:35;17.70;99.90
16974;DHT22;8603;46.944;7.412;2022-08-19T00:31:03;17.70;99.90
16974;DHT22;8603;46.944;7.412;2022-08-19T00:33:29;17.70;99.90
16974;DHT22;8603;46.944;7.412;2022-08-19T00:35:58;17.70;99.90
16974;DHT22;8603;46.944;7.412;2022-08-19T00:38:24;17.60;99.90
16974;DHT22;8603;46.944;7.412;2022-08-19T00:40:49;17.70;99.90
16974;DHT22;8603;46.944;7.412;2022-08-19T00:43:20;17.60;99.90
16974;DHT22;8603;46.944;7.412;2022-08-19T00:45:46;17.60;99.90
16974;DHT22;8603;46.944;7.412;2022-08-19T00:48:12;17.60;99.90
16974;DHT22;8603;46.944;7.412;2022-08-19T00:50:40;17.60;99.90
16974;DHT22;8603;46.944;7.412;2022-08-19T00:53:10;17.50;99.90
16974;DHT22;8603;46.944;7.412;2022-08-19T00:55:37;17.50;99.90
16974;DHT22;8603;46.944;7.412;2022-08-19T00:58:06;17.40;99.90
16974;DHT22;8603;46.944;7.412;2022-08-19T01:00:33;17.40;99.90
16974;DHT22;8603;46.944;7.412;2022-08-19T01:03:08;17.30;99.90
16974;DHT22;8603;46.944;7.412;2022-08-19T01:05:35;17.30;99.90
16974;DHT22;8603;46.944;7.412;2022-08-19T01:08:03;17.20;99.90
16974;DHT22;8603;46.944;7.412;2022-08-19T01:10:33;17.30;99.90
16974;DHT22;8603;46.944;7.412;2022-08-19T01:13:01;17.20;99.90
16974;DHT22;8603;46.944;7.412;2022-08-19T01:15:38;17.20;99.90
16974;DHT22;8603;46.944;7.412;2022-08-19T01:18:08;17.20;99.90
16974;DHT22;8603;46.944;7.412;2022-08-19T01:20:35;17.20;99.90
16974;DHT22;8603;46.944;7.412;2022-08-19T01:23:02;17.20;99.90
16974;DHT22;8603;46.944;7.412;2022-08-19T01:25:36;17.20;99.90
16974;DHT22;8603;46.944;7.412;2022-08-19T01:28:04;17.20;99.90
16974;DHT22;8603;46.944;7.412;2022-08-19T01:30:33;17.20;99.90
16974;DHT22;8603;46.944;7.412;2022-08-19T01:32:59;17.20;99.90
16974;DHT22;8603;46.944;7.412;2022-08-19T01:35:26;17.20;99.90
16974;DHT22;8603;46.944;7.412;2022-08-19T01:37:56;17.20;99.90
16974;DHT22;8603;46.944;7.412;2022-08-19T01:40:26;17.20;99.90
16974;DHT22;8603;46.944;7.412;2022-08-19T01:42:52;17.10;99.90
16974;DHT22;8603;46.944;7.412;2022-08-19T01:45:20;17.20;99.90
16974;DHT22;8603;46.944;7.412;2022-08-19T01:47:46;17.20;99.90
16974;DHT22;8603;46.944;7.412;2022-08-19T01:50:12;17.20;99.90
16974;DHT22;8603;46.944;7.412;2022-08-19T01:52:40;17.20;99.90
16974;DHT22;8603;46.944;7.412;2022-08-19T01:55:09;17.20;99.90
16974;DHT22;8603;46.944;7.412;2022-08-19T01:57:35;17.20;99.90
16974;DHT22;8603;46.944;7.412;2022-08-19T02:00:04;17.20;99.90
16974;DHT22;8603;46.944;7.412;2022-08-19T02:02:31;17.20;99.90
16974;DHT22;8603;46.944;7.412;2022-08-19T02:04:56;17.20;99.90
16974;DHT22;8603;46.944;7.412;2022-08-19T02:07:22;17.20;99.90
16974;DHT22;8603;46.944;7.412;2022-08-19T02:09:48;17.20;99.90
16974;DHT22;8603;46.944;7.412;2022-08-19T02:12:14;17.20;99.90
16974;DHT22;8603;46.944;7.412;2022-08-19T02:14:42;17.30;99.90
16974;DHT22;8603;46.944;7.412;2022-08-19T02:17:08;17.30;99.90
16974;DHT22;8603;46.944;7.412;2022-08-19T02:19:34;17.30;99.90
16974;DHT22;8603;46.944;7.412;2022-08-19T02:22:00;17.30;99.90
16974;DHT22;8603;46.944;7.412;2022-08-19T02:24:27;17.30;99.90
16974;DHT22;8603;46.944;7.412;2022-08-19T02:26:53;17.40;99.90
16974;DHT22;8603;46.944;7.412;2022-08-19T02:29:19;17.30;99.90
16974;DHT22;8603;46.944;7.412;2022-08-19T02:31:44;17.30;99.90
16974;DHT22;8603;46.944;7.412;2022-08-19T02:34:10;17.40;99.90
16974;DHT22;8603;46.944;7.412;2022-08-19T02:36:36;17.40;99.90
16974;DHT22;8603;46.944;7.412;2022-08-19T02:39:02;17.40;99.90
16974;DHT22;8603;46.944;7.412;2022-08-19T02:41:30;17.40;99.90
16974;DHT22;8603;46.944;7.412;2022-08-19T02:43:58;17.40;99.90
16974;DHT22;8603;46.944;7.412;2022-08-19T02:46:28;17.40;99.90
16974;DHT22;8603;46.944;7.412;2022-08-19T02:48:57;17.40;99.90
16974;DHT22;8603;46.944;7.412;2022-08-19T02:51:26;17.50;99.90
16974;DHT22;8603;46.944;7.412;2022-08-19T02:53:53;17.50;99.90
16974;DHT22;8603;46.944;7.412;2022-08-19T02:56:19;17.40;99.90
16974;DHT22;8603;46.944;7.412;2022-08-19T02:58:45;17.40;99.90
16974;DHT22;8603;46.944;7.412;2022-08-19T03:01:21;17.40;99.90
16974;DHT22;8603;46.944;7.412;2022-08-19T03:03:46;17.40;99.90
16974;DHT22;8603;46.944;7.412;2022-08-19T03:06:15;17.40;99.90
16974;DHT22;8603;46.944;7.412;2022-08-19T03:08:43;17.40;99.90
16974;DHT22;8603;46.944;7.412;2022-08-19T03:11:18;17.50;99.90
16974;DHT22;8603;46.944;7.412;2022-08-19T03:13:44;17.50;99.90
16974;DHT22;8603;46.944;7.412;2022-08-19T03:16:11;17.50;99.90
16974;DHT22;8603;46.944;7.412;2022-08-19T03:18:37;17.50;99.90
16974;DHT22;8603;46.944;7.412;2022-08-19T03:21:02;17.50;99.90
16974;DHT22;8603;46.944;7.412;2022-08-19T03:23:28;17.50;99.90
16974;DHT22;8603;46.944;7.412;2022-08-19T03:25:54;17.50;99.90
16974;DHT22;8603;46.944;7.412;2022-08-19T03:28:20;17.50;99.90
16974;DHT22;8603;46.944;7.412;2022-08-19T03:30:58;17.50;99.90
16974;DHT22;8603;46.944;7.412;2022-08-19T03:33:25;17.50;99.90
16974;DHT22;8603;46.944;7.412;2022-08-19T03:36:15;17.50;99.90
16974;DHT22;8603;46.944;7.412;2022-08-19T03:38:46;17.50;99.90
16974;DHT22;8603;46.944;7.412;2022-08-19T03:41:15;17.60;99.90
16974;DHT22;8603;46.944;7.412;2022-08-19T03:43:42;17.60;99.90
16974;DHT22;8603;46.944;7.412;2022-08-19T03:46:11;17.60;99.90
16974;DHT22;8603;46.944;7.412;2022-08-19T03:48:38;17.60;99.90
16974;DHT22;8603;46.944;7.412;2022-08-19T03:51:05;17.60;99.90
16974;DHT22;8603;46.944;7.412;2022-08-19T03:53:32;17.60;99.90
16974;DHT22;8603;46.944;7.412;2022-08-19T03:55:59;17.60;99.90
16974;DHT22;8603;46.944;7.412;2022-08-19T03:58:27;17.60;99.90
16974;DHT22;8603;46.944;7.412;2022-08-19T04:00:54;17.60;99.90
16974;DHT22;8603;46.944;7.412;2022-08-19T04:03:20;17.60;99.90
16974;DHT22;8603;46.944;7.412;2022-08-19T04:05:46;17.60;99.90
16974;DHT22;8603;46.944;7.412;2022-08-19T04:08:12;17.60;99.90
16974;DHT22;8603;46.944;7.412;2022-08-19T04:10:38;17.60;99.90
16974;DHT22;8603;46.944;7.412;2022-08-19T04:13:05;17.70;99.90
16974;DHT22;8603;46.944;7.412;2022-08-19T04:15:32;17.70;99.90
16974;DHT22;8603;46.944;7.412;2022-08-19T04:18:04;17.60;99.90
16974;DHT22;8603;46.944;7.412;2022-08-19T04:20:31;17.70;99.90
16974;DHT22;8603;46.944;7.412;2022-08-19T04:22:57;17.60;99.90
16974;DHT22;8603;46.944;7.412;2022-08-19T04:25:22;17.70;99.90
16974;DHT22;8603;46.944;7.412;2022-08-19T04:27:48;17.70;99.90
16974;DHT22;8603;46.944;7.412;2022-08-19T04:30:22;17.70;99.90
16974;DHT22;8603;46.944;7.412;2022-08-19T04:32:47;17.70;99.90
16974;DHT22;8603;46.944;7.412;2022-08-19T04:35:13;17.70;99.90
16974;DHT22;8603;46.944;7.412;2022-08-19T04:37:38;17.70;99.90
16974;DHT22;8603;46.944;7.412;2022-08-19T04:40:06;17.70;99.90
16974;DHT22;8603;46.944;7.412;2022-08-19T04:42:51;17.60;99.90
16974;DHT22;8603;46.944;7.412;2022-08-19T04:45:16;17.60;99.90
16974;DHT22;8603;46.944;7.412;2022-08-19T04:47:43;17.60;99.90
16974;DHT22;8603;46.944;7.412;2022-08-19T04:50:10;17.60;99.90
16974;DHT22;8603;46.944;7.412;2022-08-19T04:52:37;17.60;99.90
16974;DHT22;8603;46.944;7.412;2022-08-19T04:55:03;17.60;99.90
16974;DHT22;8603;46.944;7.412;2022-08-19T04:57:31;17.70;99.90
16974;DHT22;8603;46.944;7.412;2022-08-19T04:59:56;17.70;99.90
16974;DHT22;8603;46.944;7.412;2022-08-19T05:02:22;17.70;99.90
16974;DHT22;8603;46.944;7.412;2022-08-19T05:04:50;17.70;99.90
16974;DHT22;8603;46.944;7.412;2022-08-19T05:07:15;17.60;99.90
16974;DHT22;8603;46.944;7.412;2022-08-19T05:09:41;17.60;99.90
16974;DHT22;8603;46.944;7.412;2022-08-19T05:12:07;17.60;99.90
16974;DHT22;8603;46.944;7.412;2022-08-19T05:14:33;17.70;99.90
16974;DHT22;8603;46.944;7.412;2022-08-19T05:17:00;17.60;99.90
16974;DHT22;8603;46.944;7.412;2022-08-19T05:19:26;17.60;99.90
16974;DHT22;8603;46.944;7.412;2022-08-19T05:22:10;17.60;99.90
16974;DHT22;8603;46.944;7.412;2022-08-19T05:24:54;17.60;99.90
16974;DHT22;8603;46.944;7.412;2022-08-19T05:27:20;17.60;99.90
16974;DHT22;8603;46.944;7.412;2022-08-19T05:29:46;17.50;99.90
16974;DHT22;8603;46.944;7.412;2022-08-19T05:32:11;17.50;99.90
16974;DHT22;8603;46.944;7.412;2022-08-19T05:34:38;17.50;99.90
16974;DHT22;8603;46.944;7.412;2022-08-19T05:37:04;17.50;99.90
16974;DHT22;8603;46.944;7.412;2022-08-19T05:39:32;17.50;99.90
16974;DHT22;8603;46.944;7.412;2022-08-19T05:42:00;17.50;99.90
16974;DHT22;8603;46.944;7.412;2022-08-19T05:44:31;17.50;99.90
16974;DHT22;8603;46.944;7.412;2022-08-19T05:46:59;17.50;99.90
16974;DHT22;8603;46.944;7.412;2022-08-19T05:49:26;17.50;99.90
16974;DHT22;8603;46.944;7.412;2022-08-19T05:51:52;17.50;99.90
16974;DHT22;8603;46.944;7.412;2022-08-19T05:54:18;17.50;99.90
16974;DHT22;8603;46.944;7.412;2022-08-19T05:56:44;17.50;99.90
16974;DHT22;8603;46.944;7.412;2022-08-19T05:59:14;17.40;99.90
16974;DHT22;8603;46.944;7.412;2022-08-19T06:02:05;17.50;99.90
16974;DHT22;8603;46.944;7.412;2022-08-19T06:04:31;17.50;99.90
16974;DHT22;8603;46.944;7.412;2022-08-19T06:07:00;17.50;99.90
16974;DHT22;8603;46.944;7.412;2022-08-19T06:09:27;17.50;99.90
16974;DHT22;8603;46.944;7.412;2022-08-19T06:11:55;17.50;99.90
16974;DHT22;8603;46.944;7.412;2022-08-19T06:14:30;17.50;99.90
16974;DHT22;8603;46.944;7.412;2022-08-19T06:16:57;17.50;99.90
16974;DHT22;8603;46.944;7.412;2022-08-19T06:19:23;17.50;99.90
16974;DHT22;8603;46.944;7.412;2022-08-19T06:21:54;17.50;99.90
16974;DHT22;8603;46.944;7.412;2022-08-19T06:24:22;17.50;99.90
16974;DHT22;8603;46.944;7.412;2022-08-19T06:26:49;17.60;99.90
16974;DHT22;8603;46.944;7.412;2022-08-19T06:29:18;17.60;99.90
16974;DHT22;8603;46.944;7.412;2022-08-19T06:31:46;17.60;99.90
16974;DHT22;8603;46.944;7.412;2022-08-19T06:34:13;17.60;99.90
16974;DHT22;8603;46.944;7.412;2022-08-19T06:39:27;17.60;99.90
16974;DHT22;8603;46.944;7.412;2022-08-19T06:42:26;17.60;99.90
16974;DHT22;8603;46.944;7.412;2022-08-19T06:48:17;17.60;99.90
16974;DHT22;8603;46.944;7.412;2022-08-19T06:50:57;17.80;99.90
16974;DHT22;8603;46.944;7.412;2022-08-19T06:53:25;17.60;99.90
16974;DHT22;8603;46.944;7.412;2022-08-19T06:55:56;17.70;99.90
16974;DHT22;8603;46.944;7.412;2022-08-19T06:58:28;17.70;99.90
16974;DHT22;8603;46.944;7.412;2022-08-19T07:00:58;17.60;99.90
16974;DHT22;8603;46.944;7.412;2022-08-19T07:03:39;17.60;99.90
16974;DHT22;8603;46.944;7.412;2022-08-19T07:09:34;17.30;99.90
16974;DHT22;8603;46.944;7.412;2022-08-19T07:12:14;17.20;99.90
16974;DHT22;8603;46.944;7.412;2022-08-19T07:15:35;17.30;99.90
16974;DHT22;8603;46.944;7.412;2022-08-19T07:18:19;17.10;99.90
16974;DHT22;8603;46.944;7.412;2022-08-19T07:20:46;17.10;99.90
16974;DHT22;8603;46.944;7.412;2022-08-19T07:23:49;17.00;99.90
16974;DHT22;8603;46.944;7.412;2022-08-19T07:26:40;17.10;99.90
16974;DHT22;8603;46.944;7.412;2022-08-19T07:29:23;17.10;99.90
16974;DHT22;8603;46.944;7.412;2022-08-19T07:32:11;17.10;99.90
16974;DHT22;8603;46.944;7.412;2022-08-19T07:35:00;17.10;99.90
16974;DHT22;8603;46.944;7.412;2022-08-19T07:37:37;17.20;99.90
16974;DHT22;8603;46.944;7.412;2022-08-19T07:40:12;17.20;99.90
16974;DHT22;8603;46.944;7.412;2022-08-19T07:45:19;17.20;99.90
16974;DHT22;8603;46.944;7.412;2022-08-19T07:48:13;17.20;99.90
16974;DHT22;8603;46.944;7.412;2022-08-19T07:50:55;17.20;99.90
16974;DHT22;8603;46.944;7.412;2022-08-19T07:53:31;17.30;99.90
16974;DHT22;8603;46.944;7.412;2022-08-19T07:56:07;17.30;99.90
16974;DHT22;8603;46.944;7.412;2022-08-19T07:58:37;17.30;99.90
16974;DHT22;8603;46.944;7.412;2022-08-19T08:01:05;17.30;99.90
16974;DHT22;8603;46.944;7.412;2022-08-19T08:03:33;17.20;99.90
16974;DHT22;8603;46.944;7.412;2022-08-19T08:06:17;17.30;99.90
16974;DHT22;8603;46.944;7.412;2022-08-19T08:09:04;17.20;99.90
16974;DHT22;8603;46.944;7.412;2022-08-19T08:11:38;17.20;99.90
16974;DHT22;8603;46.944;7.412;2022-08-19T08:14:04;17.20;99.90
16974;DHT22;8603;46.944;7.412;2022-08-19T08:16:33;17.10;99.90
16974;DHT22;8603;46.944;7.412;2022-08-19T08:18:59;17.10;99.90
16974;DHT22;8603;46.944;7.412;2022-08-19T08:21:25;17.00;99.90
16974;DHT22;8603;46.944;7.412;2022-08-19T08:23:56;17.10;99.90
16974;DHT22;8603;46.944;7.412;2022-08-19T08:26:25;17.10;99.90
16974;DHT22;8603;46.944;7.412;2022-08-19T08:28:53;17.20;99.90
16974;DHT22;8603;46.944;7.412;2022-08-19T08:31:22;17.30;99.90
16974;DHT22;8603;46.944;7.412;2022-08-19T08:33:48;17.40;99.90
16974;DHT22;8603;46.944;7.412;2022-08-19T08:36:14;17.40;99.90
16974;DHT22;8603;46.944;7.412;2022-08-19T08:38:42;17.50;99.90
16974;DHT22;8603;46.944;7.412;2022-08-19T08:41:28;17.50;99.90
16974;DHT22;8603;46.944;7.412;2022-08-19T08:43:56;17.60;99.90
16974;DHT22;8603;46.944;7.412;2022-08-19T08:46:27;17.70;99.90
16974;DHT22;8603;46.944;7.412;2022-08-19T08:51:40;17.90;99.90
16974;DHT22;8603;46.944;7.412;2022-08-19T08:54:11;17.90;99.90
16974;DHT22;8603;46.944;7.412;2022-08-19T08:56:42;17.90;99.90
16974;DHT22;8603;46.944;7.412;2022-08-19T08:59:30;17.90;99.90
16974;DHT22;8603;46.944;7.412;2022-08-19T09:02:05;18.00;99.90
16974;DHT22;8603;46.944;7.412;2022-08-19T09:04:33;18.00;99.90
16974;DHT22;8603;46.944;7.412;2022-08-19T09:09:49;18.10;99.90
16974;DHT22;8603;46.944;7.412;2022-08-19T09:12:45;18.20;99.90
16974;DHT22;8603;46.944;7.412;2022-08-19T09:15:40;18.30;99.90
16974;DHT22;8603;46.944;7.412;2022-08-19T09:18:29;18.40;99.90
16974;DHT22;8603;46.944;7.412;2022-08-19T09:21:12;18.40;99.90
16974;DHT22;8603;46.944;7.412;2022-08-19T09:23:38;18.30;99.90
16974;DHT22;8603;46.944;7.412;2022-08-19T09:26:09;18.40;99.90
16974;DHT22;8603;46.944;7.412;2022-08-19T09:28:35;18.40;99.90
16974;DHT22;8603;46.944;7.412;2022-08-19T09:31:03;18.40;99.90
16974;DHT22;8603;46.944;7.412;2022-08-19T09:33:29;18.50;99.90
16974;DHT22;8603;46.944;7.412;2022-08-19T09:36:07;18.50;99.90
16974;DHT22;8603;46.944;7.412;2022-08-19T09:38:40;18.50;99.90
16974;DHT22;8603;46.944;7.412;2022-08-19T09:41:19;18.60;99.90
16974;DHT22;8603;46.944;7.412;2022-08-19T10:11:46;18.70;99.90
16974;DHT22;8603;46.944;7.412;2022-08-19T10:14:51;18.90;99.90
16974;DHT22;8603;46.944;7.412;2022-08-19T10:21:31;19.30;99.90
16974;DHT22;8603;46.944;7.412;2022-08-19T10:30:35;19.40;99.90
16974;DHT22;8603;46.944;7.412;2022-08-19T10:33:04;19.50;99.90
16974;DHT22;8603;46.944;7.412;2022-08-19T10:35:44;19.60;99.90
16974;DHT22;8603;46.944;7.412;2022-08-19T10:38:24;19.70;99.90
16974;DHT22;8603;46.944;7.412;2022-08-19T10:41:09;19.70;99.90
16974;DHT22;8603;46.944;7.412;2022-08-19T10:43:39;19.60;99.90
16974;DHT22;8603;46.944;7.412;2022-08-19T10:46:10;19.60;99.90
16974;DHT22;8603;46.944;7.412;2022-08-19T10:48:43;19.50;99.90
16974;DHT22;8603;46.944;7.412;2022-08-19T10:53:58;19.30;99.90
16974;DHT22;8603;46.944;7.412;2022-08-19T10:56:24;19.30;99.90
16974;DHT22;8603;46.944;7.412;2022-08-19T10:59:09;19.20;99.90
16974;DHT22;8603;46.944;7.412;2022-08-19T11:01:35;19.30;99.90
16974;DHT22;8603;46.944;7.412;2022-08-19T11:04:04;19.30;99.90
16974;DHT22;8603;46.944;7.412;2022-08-19T11:06:33;19.30;99.90
16974;DHT22;8603;46.944;7.412;2022-08-19T11:08:59;19.40;99.90
16974;DHT22;8603;46.944;7.412;2022-08-19T11:11:26;19.40;99.90
16974;DHT22;8603;46.944;7.412;2022-08-19T11:13:52;19.50;99.90
16974;DHT22;8603;46.944;7.412;2022-08-19T11:16:20;19.50;99.90
16974;DHT22;8603;46.944;7.412;2022-08-19T11:18:58;19.60;99.90
16974;DHT22;8603;46.944;7.412;2022-08-19T11:21:32;19.70;99.90
16974;DHT22;8603;46.944;7.412;2022-08-19T11:24:00;19.80;99.90
16974;DHT22;8603;46.944;7.412;2022-08-19T11:26:30;19.90;99.90
16974;DHT22;8603;46.944;7.412;2022-08-19T11:28:57;20.00;99.90
16974;DHT22;8603;46.944;7.412;2022-08-19T11:31:31;20.00;99.90
16974;DHT22;8603;46.944;7.412;2022-08-19T11:33:59;20.00;99.90
16974;DHT22;8603;46.944;7.412;2022-08-19T11:36:25;20.00;99.90
16974;DHT22;8603;46.944;7.412;2022-08-19T11:38:52;19.90;99.90
16974;DHT22;8603;46.944;7.412;2022-08-19T11:41:19;19.90;99.90
16974;DHT22;8603;46.944;7.412;2022-08-19T11:43:45;19.80;99.90
16974;DHT22;8603;46.944;7.412;2022-08-19T11:46:13;19.70;99.90
16974;DHT22;8603;46.944;7.412;2022-08-19T11:48:40;19.60;99.90
16974;DHT22;8603;46.944;7.412;2022-08-19T11:51:08;19.60;99.90
16974;DHT22;8603;46.944;7.412;2022-08-19T11:53:35;19.50;99.90
16974;DHT22;8603;46.944;7.412;2022-08-19T11:56:01;19.50;99.90
16974;DHT22;8603;46.944;7.412;2022-08-19T11:58:27;19.40;99.90
16974;DHT22;8603;46.944;7.412;2022-08-19T12:00:54;19.40;99.90
16974;DHT22;8603;46.944;7.412;2022-08-19T12:03:21;19.20;99.90
16974;DHT22;8603;46.944;7.412;2022-08-19T12:05:47;19.10;99.90
16974;DHT22;8603;46.944;7.412;2022-08-19T12:08:13;19.00;99.90
16974;DHT22;8603;46.944;7.412;2022-08-19T12:10:40;18.90;99.90
16974;DHT22;8603;46.944;7.412;2022-08-19T12:13:08;18.70;99.90
16974;DHT22;8603;46.944;7.412;2022-08-19T12:15:38;18.70;99.90
16974;DHT22;8603;46.944;7.412;2022-08-19T12:18:07;18.70;99.90
16974;DHT22;8603;46.944;7.412;2022-08-19T12:20:38;18.60;99.90
16974;DHT22;8603;46.944;7.412;2022-08-19T12:23:06;18.60;99.90
16974;DHT22;8603;46.944;7.412;2022-08-19T12:25:32;18.60;99.90
16974;DHT22;8603;46.944;7.412;2022-08-19T12:27:58;18.50;99.90
16974;DHT22;8603;46.944;7.412;2022-08-19T12:30:24;18.50;99.90
16974;DHT22;8603;46.944;7.412;2022-08-19T12:32:50;18.40;99.90
16974;DHT22;8603;46.944;7.412;2022-08-19T12:35:17;18.30;99.90
16974;DHT22;8603;46.944;7.412;2022-08-19T12:37:46;18.30;99.90
16974;DHT22;8603;46.944;7.412;2022-08-19T12:40:15;18.30;99.90
16974;DHT22;8603;46.944;7.412;2022-08-19T12:42:41;18.30;99.90
16974;DHT22;8603;46.944;7.412;2022-08-19T12:45:09;18.30;99.90
16974;DHT22;8603;46.944;7.412;2022-08-19T12:47:38;18.30;99.90
16974;DHT22;8603;46.944;7.412;2022-08-19T12:50:04;18.30;99.90
16974;DHT22;8603;46.944;7.412;2022-08-19T12:52:31;18.30;99.90
16974;DHT22;8603;46.944;7.412;2022-08-19T12:54:57;18.30;99.90
16974;DHT22;8603;46.944;7.412;2022-08-19T12:57:25;18.30;99.90
16974;DHT22;8603;46.944;7.412;2022-08-19T12:59:54;18.40;99.90
16974;DHT22;8603;46.944;7.412;2022-08-19T13:02:20;18.50;99.90
16974;DHT22;8603;46.944;7.412;2022-08-19T13:04:46;18.50;99.90
16974;DHT22;8603;46.944;7.412;2022-08-19T13:07:13;18.60;99.90
16974;DHT22;8603;46.944;7.412;2022-08-19T13:09:39;18.60;99.90
16974;DHT22;8603;46.944;7.412;2022-08-19T13:12:08;18.50;99.90
16974;DHT22;8603;46.944;7.412;2022-08-19T13:14:38;18.60;99.90
16974;DHT22;8603;46.944;7.412;2022-08-19T13:17:32;18.50;99.90
16974;DHT22;8603;46.944;7.412;2022-08-19T13:19:56;18.50;99.90
16974;DHT22;8603;46.944;7.412;2022-08-19T13:22:21;18.40;99.90
16974;DHT22;8603;46.944;7.412;2022-08-19T13:24:47;18.30;99.90
16974;DHT22;8603;46.944;7.412;2022-08-19T13:27:13;18.30;99.90
16974;DHT22;8603;46.944;7.412;2022-08-19T13:29:40;18.20;99.90
16974;DHT22;8603;46.944;7.412;2022-08-19T13:32:24;18.20;99.90
16974;DHT22;8603;46.944;7.412;2022-08-19T13:35:09;18.20;99.90
16974;DHT22;8603;46.944;7.412;2022-08-19T13:37:34;18.20;99.90
16974;DHT22;8603;46.944;7.412;2022-08-19T13:40:16;18.10;99.90
16974;DHT22;8603;46.944;7.412;2022-08-19T13:42:44;18.10;99.90
16974;DHT22;8603;46.944;7.412;2022-08-19T13:45:11;18.10;99.90
16974;DHT22;8603;46.944;7.412;2022-08-19T13:47:38;18.10;99.90
16974;DHT22;8603;46.944;7.412;2022-08-19T13:50:09;18.00;99.90
16974;DHT22;8603;46.944;7.412;2022-08-19T13:52:39;18.00;99.90
16974;DHT22;8603;46.944;7.412;2022-08-19T13:55:06;17.90;99.90
16974;DHT22;8603;46.944;7.412;2022-08-19T13:57:35;17.90;99.90
16974;DHT22;8603;46.944;7.412;2022-08-19T14:00:03;17.90;99.90
16974;DHT22;8603;46.944;7.412;2022-08-19T14:02:29;17.90;99.90
16974;DHT22;8603;46.944;7.412;2022-08-19T14:04:55;17.90;99.90
16974;DHT22;8603;46.944;7.412;2022-08-19T14:07:21;17.90;99.90
16974;DHT22;8603;46.944;7.412;2022-08-19T14:09:49;18.00;99.90
16974;DHT22;8603;46.944;7.412;2022-08-19T14:12:19;18.00;99.90
16974;DHT22;8603;46.944;7.412;2022-08-19T14:14:44;18.10;99.90
16974;DHT22;8603;46.944;7.412;2022-08-19T14:17:31;18.00;99.90
16974;DHT22;8603;46.944;7.412;2022-08-19T14:20:00;18.00;99.90
16974;DHT22;8603;46.944;7.412;2022-08-19T14:22:33;18.00;99.90
16974;DHT22;8603;46.944;7.412;2022-08-19T14:24:58;18.00;99.90
16974;DHT22;8603;46.944;7.412;2022-08-19T14:27:24;18.00;99.90
16974;DHT22;8603;46.944;7.412;2022-08-19T14:29:53;18.00;99.90
16974;DHT22;8603;46.944;7.412;2022-08-19T14:32:20;18.00;99.90
16974;DHT22;8603;46.944;7.412;2022-08-19T14:34:46;18.00;99.90
16974;DHT22;8603;46.944;7.412;2022-08-19T14:37:13;18.00;99.90
16974;DHT22;8603;46.944;7.412;2022-08-19T14:39:42;18.00;99.90
16974;DHT22;8603;46.944;7.412;2022-08-19T14:42:09;18.00;99.90
16974;DHT22;8603;46.944;7.412;2022-08-19T14:44:35;18.00;99.90
16974;DHT22;8603;46.944;7.412;2022-08-19T14:47:01;18.10;99.90
16974;DHT22;8603;46.944;7.412;2022-08-19T14:49:26;18.00;99.90
16974;DHT22;8603;46.944;7.412;2022-08-19T14:51:52;18.00;99.90
16974;DHT22;8603;46.944;7.412;2022-08-19T14:54:17;18.00;99.90
16974;DHT22;8603;46.944;7.412;2022-08-19T14:56:43;17.90;99.90
16974;DHT22;8603;46.944;7.412;2022-08-19T14:59:09;17.90;99.90
16974;DHT22;8603;46.944;7.412;2022-08-19T15:01:34;17.90;99.90
16974;DHT22;8603;46.944;7.412;2022-08-19T15:04:00;17.90;99.90
16974;DHT22;8603;46.944;7.412;2022-08-19T15:06:27;17.90;99.90
16974;DHT22;8603;46.944;7.412;2022-08-19T15:08:53;17.90;99.90
16974;DHT22;8603;46.944;7.412;2022-08-19T15:11:22;17.80;99.90
16974;DHT22;8603;46.944;7.412;2022-08-19T15:13:49;17.70;99.90
16974;DHT22;8603;46.944;7.412;2022-08-19T15:16:15;17.70;99.90
16974;DHT22;8603;46.944;7.412;2022-08-19T15:18:42;17.70;99.90
16974;DHT22;8603;46.944;7.412;2022-08-19T15:21:11;17.60;99.90
16974;DHT22;8603;46.944;7.412;2022-08-19T15:23:38;17.60;99.90
16974;DHT22;8603;46.944;7.412;2022-08-19T15:26:04;17.60;99.90
16974;DHT22;8603;46.944;7.412;2022-08-19T15:28:31;17.60;99.90
16974;DHT22;8603;46.944;7.412;2022-08-19T15:30:57;17.50;99.90
16974;DHT22;8603;46.944;7.412;2022-08-19T15:33:24;17.40;99.90
16974;DHT22;8603;46.944;7.412;2022-08-19T15:35:50;17.40;99.90
16974;DHT22;8603;46.944;7.412;2022-08-19T15:38:16;17.30;99.90
16974;DHT22;8603;46.944;7.412;2022-08-19T15:40:47;17.20;99.90
16974;DHT22;8603;46.944;7.412;2022-08-19T15:43:14;17.20;99.90
16974;DHT22;8603;46.944;7.412;2022-08-19T15:45:41;17.20;99.90
16974;DHT22;8603;46.944;7.412;2022-08-19T15:48:07;17.10;99.90
16974;DHT22;8603;46.944;7.412;2022-08-19T15:50:33;17.00;99.90
16974;DHT22;8603;46.944;7.412;2022-08-19T15:53:04;16.90;99.90
16974;DHT22;8603;46.944;7.412;2022-08-19T15:55:33;16.80;99.90
16974;DHT22;8603;46.944;7.412;2022-08-19T15:58:06;16.70;99.90
16974;DHT22;8603;46.944;7.412;2022-08-19T16:00:50;16.70;99.90
16974;DHT22;8603;46.944;7.412;2022-08-19T16:03:34;16.60;99.90
16974;DHT22;8603;46.944;7.412;2022-08-19T16:06:18;16.60;99.90
16974;DHT22;8603;46.944;7.412;2022-08-19T16:08:58;16.50;99.90
16974;DHT22;8603;46.944;7.412;2022-08-19T16:11:27;16.50;99.90
16974;DHT22;8603;46.944;7.412;2022-08-19T16:13:56;16.50;99.90
16974;DHT22;8603;46.944;7.412;2022-08-19T16:16:24;16.40;99.90
16974;DHT22;8603;46.944;7.412;2022-08-19T16:18:53;16.40;99.90
16974;DHT22;8603;46.944;7.412;2022-08-19T16:21:23;16.40;99.90
16974;DHT22;8603;46.944;7.412;2022-08-19T16:23:50;16.40;99.90
16974;DHT22;8603;46.944;7.412;2022-08-19T16:26:18;16.30;99.90
16974;DHT22;8603;46.944;7.412;2022-08-19T16:28:45;16.30;99.90
16974;DHT22;8603;46.944;7.412;2022-08-19T16:31:13;16.30;99.90
16974;DHT22;8603;46.944;7.412;2022-08-19T16:33:39;16.30;99.90
16974;DHT22;8603;46.944;7.412;2022-08-19T16:36:05;16.30;99.90
16974;DHT22;8603;46.944;7.412;2022-08-19T16:38:32;16.30;99.90
16974;DHT22;8603;46.944;7.412;2022-08-19T16:40:58;16.30;99.90
16974;DHT22;8603;46.944;7.412;2022-08-19T16:43:26;16.20;99.90
16974;DHT22;8603;46.944;7.412;2022-08-19T16:45:53;16.20;99.90
16974;DHT22;8603;46.944;7.412;2022-08-19T16:48:23;16.20;99.90
16974;DHT22;8603;46.944;7.412;2022-08-19T16:50:51;16.20;99.90
16974;DHT22;8603;46.944;7.412;2022-08-19T16:53:19;16.20;99.90
16974;DHT22;8603;46.944;7.412;2022-08-19T16:55:46;16.30;99.90
16974;DHT22;8603;46.944;7.412;2022-08-19T16:58:23;16.30;99.90
16974;DHT22;8603;46.944;7.412;2022-08-19T17:00:56;16.30;99.90